createdAt,value
2018-02-21T00:01:06.459Z,31.10
2018-02-21T00:03:33.922Z,29.37
2018-02-21T00:06:01.404Z,30.47
2018-02-21T00:08:28.847Z,30.43
2018-02-21T00:10:56.288Z,31.97
2018-02-21T00:13:23.778Z,32.83
2018-02-21T00:15:51.219Z,30.27
2018-02-21T00:18:18.684Z,29.70
2018-02-21T00:20:46.118Z,32.30
2018-02-21T00:23:13.647Z,30.37
2018-02-21T00:25:41.107Z,30.17
2018-02-21T00:28:08.556Z,31.70
2018-02-21T00:30:36.031Z,30.97
2018-02-21T00:33:03.489Z,31.40
2018-02-21T00:35:30.950Z,32.33
2018-02-21T00:37:58.432Z,31.27
2018-02-21T00:40:25.887Z,31.03
2018-02-21T00:42:53.335Z,30.83
2018-02-21T00:45:20.809Z,31.00
2018-02-21T00:47:48.271Z,32.07
2018-02-21T00:50:16.503Z,31.10
2018-02-21T00:52:43.949Z,30.23
2018-02-21T00:55:11.416Z,33.03
2018-02-21T00:57:38.879Z,30.20
2018-02-21T01:00:06.344Z,33.13
2018-02-21T01:02:33.800Z,30.27
2018-02-21T01:05:01.267Z,31.03
2018-02-21T01:07:28.738Z,32.83
2018-02-21T01:09:56.966Z,31.00
2018-02-21T01:12:24.446Z,31.37
2018-02-21T01:14:51.894Z,31.07
2018-02-21T01:17:19.339Z,31.27
2018-02-21T01:19:46.849Z,28.60
2018-02-21T01:22:15.077Z,29.70
2018-02-21T01:24:42.543Z,30.27
2018-02-21T01:27:10.013Z,29.77
2018-02-21T01:29:37.496Z,29.17
2018-02-21T01:32:04.934Z,30.63
2018-02-21T01:34:32.407Z,32.00
2018-02-21T01:37:00.635Z,30.43
2018-02-21T01:39:28.872Z,30.13
2018-02-21T01:41:56.586Z,29.27
2018-02-21T01:44:24.798Z,31.47
2018-02-21T01:46:52.358Z,30.60
2018-02-21T01:49:20.555Z,31.50
2018-02-21T01:51:48.003Z,30.13
2018-02-21T01:54:15.507Z,31.67
2018-02-21T01:56:42.971Z,31.27
2018-02-21T01:59:10.436Z,30.03
2018-02-21T02:01:37.911Z,31.30
2018-02-21T02:04:06.133Z,29.83
2018-02-21T02:06:34.363Z,31.13
2018-02-21T02:09:01.827Z,30.97
2018-02-21T02:11:29.290Z,29.30
2018-02-21T02:13:57.515Z,30.20
2018-02-21T02:16:24.976Z,30.13
2018-02-21T02:18:52.455Z,30.27
2018-02-21T02:21:19.899Z,30.57
2018-02-21T02:23:47.382Z,29.50
2018-02-21T02:26:14.835Z,29.37
2018-02-21T02:28:43.083Z,30.43
2018-02-21T02:31:10.572Z,29.10
2018-02-21T02:33:38.783Z,29.03
2018-02-21T02:36:06.228Z,28.17
2018-02-21T02:38:40.391Z,28.63
2018-02-21T02:41:07.847Z,29.57
2018-02-21T02:43:35.365Z,29.57
2018-02-21T02:46:03.539Z,28.70
2018-02-21T02:48:30.982Z,26.97
2018-02-21T02:50:58.450Z,29.47
2018-02-21T02:53:25.910Z,31.63
2018-02-21T02:55:53.358Z,28.90
2018-02-21T02:58:20.831Z,31.80
2018-02-21T03:00:48.267Z,29.63
2018-02-21T03:03:15.722Z,28.70
2018-02-21T03:05:43.199Z,31.57
2018-02-21T03:08:10.658Z,31.90
2018-02-21T03:10:38.151Z,30.90
2018-02-21T03:13:05.602Z,30.90
2018-02-21T03:15:33.069Z,29.47
2018-02-21T03:18:00.546Z,32.27
2018-02-21T03:20:28.754Z,31.17
2018-02-21T03:22:56.255Z,31.90
2018-02-21T03:25:23.710Z,31.83
2018-02-21T03:27:51.174Z,31.73
2018-02-21T03:30:18.647Z,33.57
2018-02-21T03:32:46.850Z,32.00
2018-02-21T03:35:14.331Z,32.20
2018-02-21T03:37:41.786Z,31.27
2018-02-21T03:40:09.230Z,31.53
2018-02-21T03:42:36.686Z,32.37
2018-02-21T03:45:04.139Z,34.53
2018-02-21T03:47:31.612Z,31.07
2018-02-21T03:49:59.135Z,31.53
2018-02-21T03:52:26.583Z,31.20
2018-02-21T03:54:54.818Z,30.80
2018-02-21T03:57:22.294Z,32.00
2018-02-21T03:59:49.787Z,30.50
2018-02-21T04:02:17.259Z,28.93
2018-02-21T04:04:44.714Z,30.60
2018-02-21T04:07:12.188Z,31.40
2018-02-21T04:09:39.633Z,30.60
2018-02-21T04:12:07.102Z,30.90
2018-02-21T04:14:34.547Z,28.90
2018-02-21T04:17:02.007Z,29.23
2018-02-21T04:19:29.471Z,31.20
2018-02-21T04:21:56.915Z,31.70
2018-02-21T04:24:24.376Z,29.53
2018-02-21T04:26:51.831Z,31.80
2018-02-21T04:29:19.287Z,30.63
2018-02-21T04:31:46.755Z,29.17
2018-02-21T04:34:14.200Z,30.63
2018-02-21T04:36:41.654Z,30.53
2018-02-21T04:39:09.111Z,30.77
2018-02-21T04:41:36.559Z,30.83
2018-02-21T04:44:04.021Z,30.90
2018-02-21T04:46:31.510Z,29.33
2018-02-21T04:48:58.964Z,27.90
2018-02-21T04:51:26.451Z,28.53
2018-02-21T04:53:53.878Z,29.03
2018-02-21T04:56:25.179Z,28.43
2018-02-21T04:58:58.407Z,30.33
2018-02-21T05:01:26.686Z,31.97
2018-02-21T05:03:54.147Z,32.87
2018-02-21T05:06:21.591Z,29.43
2018-02-21T05:08:49.054Z,30.67
2018-02-21T05:11:16.507Z,30.43
2018-02-21T05:13:43.964Z,30.50
2018-02-21T05:16:11.419Z,29.57
2018-02-21T05:18:38.912Z,31.00
2018-02-21T05:21:06.393Z,30.30
2018-02-21T05:23:33.851Z,30.37
2018-02-21T05:26:01.308Z,30.30
2018-02-21T05:28:29.538Z,31.87
2018-02-21T05:30:57.002Z,30.07
2018-02-21T05:33:24.449Z,30.17
2018-02-21T05:35:51.899Z,30.10
2018-02-21T05:38:19.363Z,30.10
2018-02-21T05:40:46.798Z,31.70
2018-02-21T05:43:14.251Z,31.00
2018-02-21T05:45:41.719Z,31.87
2018-02-21T05:48:09.183Z,29.97
2018-02-21T05:50:36.647Z,29.60
2018-02-21T05:53:04.094Z,29.10
2018-02-21T05:55:31.543Z,30.43
2018-02-21T05:57:59.010Z,29.07
2018-02-21T06:00:26.464Z,29.30
2018-02-21T06:02:53.928Z,31.13
2018-02-21T06:05:21.970Z,30.53
2018-02-21T06:07:49.455Z,30.53
2018-02-21T06:10:16.915Z,31.93
2018-02-21T06:12:44.354Z,29.37
2018-02-21T06:15:11.851Z,31.00
2018-02-21T06:17:39.298Z,31.53
2018-02-21T06:20:06.762Z,33.50
2018-02-21T06:22:34.211Z,30.40
2018-02-21T06:25:01.693Z,31.60
2018-02-21T06:27:29.127Z,31.07
2018-02-21T06:29:57.339Z,31.97
2018-02-21T06:32:25.572Z,30.37
2018-02-21T06:34:53.044Z,29.53
2018-02-21T06:37:20.503Z,31.17
2018-02-21T06:39:47.993Z,30.60
2018-02-21T06:42:15.446Z,29.03
2018-02-21T06:44:43.675Z,30.40
2018-02-21T06:47:11.120Z,30.00
2018-02-21T06:49:39.366Z,34.37
2018-02-21T06:52:06.819Z,33.17
2018-02-21T06:54:34.286Z,34.77
2018-02-21T06:57:01.752Z,31.30
2018-02-21T06:59:29.184Z,32.70
2018-02-21T07:01:57.411Z,33.00
2018-02-21T07:04:25.631Z,34.53
2018-02-21T07:06:53.147Z,31.87
2018-02-21T07:09:20.579Z,31.80
2018-02-21T07:11:48.051Z,34.47
2018-02-21T07:14:15.512Z,32.53
2018-02-21T07:16:42.968Z,33.40
2018-02-21T07:19:10.456Z,31.73
2018-02-21T07:21:37.889Z,33.40
2018-02-21T07:24:05.343Z,31.73
2018-02-21T07:26:32.794Z,31.23
2018-02-21T07:29:00.238Z,30.00
2018-02-21T07:31:27.734Z,32.60
2018-02-21T07:33:55.162Z,32.10
2018-02-21T07:36:22.615Z,32.20
2018-02-21T07:38:50.087Z,32.37
2018-02-21T07:41:17.539Z,31.87
2018-02-21T07:43:44.986Z,34.57
2018-02-21T07:46:12.456Z,33.40
2018-02-21T07:48:39.919Z,34.93
2018-02-21T07:51:07.374Z,32.90
2018-02-21T07:53:34.815Z,35.03
2018-02-21T07:56:02.284Z,33.90
2018-02-21T07:58:30.510Z,33.37
2018-02-21T08:00:58.072Z,35.67
2018-02-21T08:03:25.459Z,34.50
2018-02-21T08:05:52.931Z,35.50
2018-02-21T08:08:20.405Z,34.80
2018-02-21T08:10:47.852Z,34.20
2018-02-21T08:13:15.294Z,33.60
2018-02-21T08:15:42.767Z,34.53
2018-02-21T08:18:11.019Z,34.13
2018-02-21T08:20:38.586Z,32.47
2018-02-21T08:23:06.052Z,32.33
2018-02-21T08:25:33.515Z,31.93
2018-02-21T08:28:00.982Z,32.40
2018-02-21T08:30:28.442Z,32.53
2018-02-21T08:32:55.947Z,31.00
2018-02-21T08:35:23.418Z,30.73
2018-02-21T08:37:50.863Z,31.83
2018-02-21T08:40:18.335Z,30.10
2018-02-21T08:42:45.815Z,31.03
2018-02-21T08:45:13.264Z,29.90
2018-02-21T08:47:40.719Z,30.33
2018-02-21T08:50:08.187Z,30.03
2018-02-21T08:52:35.682Z,29.07
2018-02-21T08:55:03.114Z,29.10
2018-02-21T08:57:31.334Z,29.90
2018-02-21T08:59:58.795Z,32.33
2018-02-21T09:02:26.259Z,28.73
2018-02-21T09:04:53.724Z,27.13
2018-02-21T09:07:21.171Z,27.97
2018-02-21T09:09:48.635Z,28.20
2018-02-21T09:12:16.084Z,27.73
2018-02-21T09:14:43.529Z,26.73
2018-02-21T09:17:10.974Z,28.30
2018-02-21T09:19:38.402Z,27.00
2018-02-21T09:22:06.626Z,26.00
2018-02-21T09:24:34.087Z,26.60
2018-02-21T09:27:01.534Z,27.03
2018-02-21T09:29:28.999Z,27.57
2018-02-21T09:31:56.449Z,27.13
2018-02-21T09:34:23.907Z,26.73
2018-02-21T09:36:51.362Z,26.07
2018-02-21T09:39:18.826Z,24.77
2018-02-21T09:41:46.298Z,23.70
2018-02-21T09:44:13.747Z,24.13
2018-02-21T09:46:41.203Z,23.57
2018-02-21T09:49:08.662Z,24.03
2018-02-21T09:51:36.116Z,22.83
2018-02-21T09:54:03.578Z,23.40
2018-02-21T09:56:31.795Z,21.53
2018-02-21T09:58:59.250Z,22.43
2018-02-21T10:01:26.687Z,21.50
2018-02-21T10:03:54.152Z,21.83
2018-02-21T10:06:21.588Z,20.03
2018-02-21T10:08:49.060Z,20.00
2018-02-21T10:11:16.546Z,21.17
2018-02-21T10:13:44.006Z,20.87
2018-02-21T10:16:11.443Z,19.23
2018-02-21T10:18:38.883Z,20.47
2018-02-21T10:21:06.351Z,20.07
2018-02-21T10:23:33.791Z,20.27
2018-02-21T10:26:01.247Z,19.03
2018-02-21T10:28:28.704Z,15.57
2018-02-21T10:30:56.153Z,16.23
2018-02-21T10:33:23.610Z,16.50
2018-02-21T10:35:51.055Z,14.40
2018-02-21T10:38:18.510Z,13.30
2018-02-21T10:40:45.966Z,15.40
2018-02-21T10:43:13.435Z,14.63
2018-02-21T10:45:40.879Z,15.87
2018-02-21T10:48:08.339Z,15.60
2018-02-21T10:50:35.777Z,14.70
2018-02-21T10:53:03.289Z,14.43
2018-02-21T10:55:31.523Z,15.57
2018-02-21T10:57:58.986Z,15.90
2018-02-21T11:00:32.150Z,15.90
2018-02-21T11:02:59.609Z,16.07
2018-02-21T11:05:27.066Z,15.33
2018-02-21T11:07:54.499Z,15.43
2018-02-21T11:10:22.739Z,15.33
2018-02-21T11:12:50.180Z,15.53
2018-02-21T11:15:17.654Z,15.17
2018-02-21T11:17:45.096Z,15.27
2018-02-21T11:20:13.323Z,14.83
2018-02-21T11:22:40.768Z,14.43
2018-02-21T11:25:08.208Z,13.47
2018-02-21T11:27:37.438Z,15.33
2018-02-21T11:30:04.878Z,14.93
2018-02-21T11:32:33.103Z,16.67
2018-02-21T11:35:01.443Z,15.40
2018-02-21T11:37:29.649Z,14.90
2018-02-21T11:39:57.079Z,15.80
2018-02-21T11:42:24.534Z,16.43
2018-02-21T11:44:52.006Z,15.93
2018-02-21T11:47:19.439Z,15.57
2018-02-21T11:49:46.875Z,16.03
2018-02-21T11:52:14.331Z,15.10
2018-02-21T11:54:42.543Z,15.80
2018-02-21T11:57:10.012Z,16.70
2018-02-21T11:59:37.446Z,17.97
2018-02-21T12:02:04.916Z,17.53
2018-02-21T12:04:32.374Z,17.43
2018-02-21T12:06:59.831Z,17.10
2018-02-21T12:09:27.264Z,17.03
2018-02-21T12:11:55.505Z,16.87
2018-02-21T12:14:22.944Z,18.03
2018-02-21T12:16:50.388Z,16.83
2018-02-21T12:19:17.846Z,17.70
2018-02-21T12:21:45.287Z,17.73
2018-02-21T12:24:12.740Z,17.17
2018-02-21T12:26:40.308Z,17.80
2018-02-21T12:29:07.786Z,16.27
2018-02-21T12:31:35.211Z,17.60
2018-02-21T12:34:02.672Z,18.00
2018-02-21T12:36:30.111Z,17.00
2018-02-21T12:42:04.046Z,17.23
2018-02-21T12:44:31.517Z,16.90
2018-02-21T12:46:59.045Z,17.67
2018-02-21T12:49:27.231Z,17.53
2018-02-21T12:51:54.704Z,16.27
2018-02-21T12:54:22.143Z,16.83
2018-02-21T12:56:49.602Z,16.40
2018-02-21T12:59:17.047Z,17.87
2018-02-21T13:01:44.503Z,17.20
2018-02-21T13:04:11.943Z,16.67
2018-02-21T13:06:39.410Z,16.43
2018-02-21T13:09:06.854Z,17.77
2018-02-21T13:11:34.283Z,18.10
2018-02-21T13:14:01.778Z,17.93
2018-02-21T13:16:29.211Z,16.57
2018-02-21T13:18:56.651Z,16.93
2018-02-21T13:21:24.103Z,16.43
2018-02-21T13:23:51.547Z,17.33
2018-02-21T13:26:19.037Z,17.50
2018-02-21T13:28:46.474Z,18.57
2018-02-21T13:31:13.931Z,17.90
2018-02-21T13:33:41.367Z,17.33
2018-02-21T13:36:08.819Z,17.83
2018-02-21T13:38:36.291Z,17.30
2018-02-21T13:41:03.755Z,16.87
2018-02-21T13:43:31.227Z,18.73
2018-02-21T13:45:58.684Z,18.87
2018-02-21T13:48:26.131Z,17.23
2018-02-21T13:50:53.588Z,18.47
2018-02-21T13:53:21.023Z,17.57
2018-02-21T13:55:48.524Z,16.57
2018-02-21T13:58:16.018Z,17.10
2018-02-21T14:00:43.461Z,16.80
2018-02-21T14:03:10.919Z,17.23
2018-02-21T14:05:38.375Z,17.90
2018-02-21T14:08:05.831Z,17.90
2018-02-21T14:10:34.055Z,18.83
2018-02-21T14:13:01.499Z,17.93
2018-02-21T14:15:28.951Z,20.27
2018-02-21T14:17:56.399Z,18.47
2018-02-21T14:20:23.847Z,18.40
2018-02-21T14:22:52.122Z,18.87
2018-02-21T14:25:20.346Z,18.07
2018-02-21T14:27:47.782Z,17.87
2018-02-21T14:30:15.350Z,18.23
2018-02-21T14:32:42.782Z,18.00
2018-02-21T14:35:10.219Z,18.33
2018-02-21T14:37:38.438Z,17.20
2018-02-21T14:40:05.888Z,16.37
2018-02-21T14:42:33.443Z,17.27
2018-02-21T14:45:00.878Z,17.50
2018-02-21T14:47:29.077Z,17.40
2018-02-21T14:49:56.534Z,17.73
2018-02-21T14:52:23.987Z,16.80
2018-02-21T14:54:51.443Z,16.80
2018-02-21T14:57:18.878Z,16.57
2018-02-21T14:59:46.347Z,17.67
2018-02-21T15:02:13.800Z,16.47
2018-02-21T15:04:41.253Z,17.17
2018-02-21T15:07:08.711Z,16.27
2018-02-21T15:09:36.168Z,17.13
2018-02-21T15:12:03.623Z,15.63
2018-02-21T15:14:31.070Z,16.03
2018-02-21T15:16:58.548Z,15.50
2018-02-21T15:19:25.995Z,15.80
2018-02-21T15:21:53.450Z,15.87
2018-02-21T15:24:20.926Z,15.70
2018-02-21T15:26:48.387Z,18.90
2018-02-21T15:29:15.842Z,15.57
2018-02-21T15:31:43.322Z,15.57
2018-02-21T15:34:10.804Z,15.20
2018-02-21T15:36:38.313Z,14.67
2018-02-21T15:39:05.756Z,16.13
2018-02-21T15:41:33.201Z,16.30
2018-02-21T15:44:00.673Z,16.10
2018-02-21T15:46:28.140Z,16.10
2018-02-21T15:48:55.587Z,15.83
2018-02-21T15:51:23.032Z,16.00
2018-02-21T15:53:50.487Z,15.33
2018-02-21T15:56:17.927Z,14.50
2018-02-21T15:58:46.174Z,15.43
2018-02-21T16:01:13.649Z,15.77
2018-02-21T16:03:41.043Z,15.40
2018-02-21T16:06:08.507Z,15.60
2018-02-21T16:08:35.952Z,15.07
2018-02-21T16:11:03.409Z,15.73
2018-02-21T16:13:30.905Z,16.03
2018-02-21T16:15:58.366Z,16.37
2018-02-21T16:18:25.835Z,16.47
2018-02-21T16:20:53.291Z,16.30
2018-02-21T16:23:20.762Z,16.80
2018-02-21T16:25:48.224Z,16.30
2018-02-21T16:28:15.660Z,16.00
2018-02-21T16:30:43.119Z,15.97
2018-02-21T16:33:10.583Z,16.70
2018-02-21T16:35:38.022Z,16.47
2018-02-21T16:38:05.525Z,17.13
2018-02-21T16:40:32.942Z,17.57
2018-02-21T16:43:00.406Z,16.97
2018-02-21T16:45:27.851Z,17.33
2018-02-21T16:47:56.066Z,17.80
2018-02-21T16:50:23.518Z,17.40
2018-02-21T16:52:51.000Z,17.27
2018-02-21T16:55:18.439Z,18.20
2018-02-21T16:57:46.643Z,17.23
2018-02-21T17:00:14.138Z,18.03
2018-02-21T17:02:41.583Z,18.77
2018-02-21T17:05:09.027Z,19.43
2018-02-21T17:07:36.499Z,18.17
2018-02-21T17:10:03.955Z,18.03
2018-02-21T17:12:31.422Z,19.70
2018-02-21T17:14:58.883Z,18.73
2018-02-21T17:17:26.340Z,19.73
2018-02-21T17:19:53.805Z,18.67
2018-02-21T17:22:21.295Z,19.57
2018-02-21T17:24:49.519Z,18.67
2018-02-21T17:27:16.975Z,18.90
2018-02-21T17:29:44.436Z,18.47
2018-02-21T17:32:11.891Z,20.20
2018-02-21T17:34:40.102Z,19.17
2018-02-21T17:37:07.562Z,19.43
2018-02-21T17:39:35.011Z,20.43
2018-02-21T17:42:02.458Z,20.50
2018-02-21T17:44:29.903Z,19.33
2018-02-21T17:46:57.362Z,20.67
2018-02-21T17:49:24.812Z,24.47
2018-02-21T17:51:52.270Z,22.00
2018-02-21T17:54:19.708Z,22.97
2018-02-21T17:56:47.152Z,22.63
2018-02-21T17:59:14.611Z,22.17
2018-02-21T18:01:42.056Z,20.17
2018-02-21T18:04:09.528Z,20.57
2018-02-21T18:06:36.999Z,23.00
2018-02-21T18:09:04.463Z,21.43
2018-02-21T18:11:31.918Z,23.03
2018-02-21T18:13:59.411Z,22.47
2018-02-21T18:16:26.846Z,25.07
2018-02-21T18:18:54.294Z,23.77
2018-02-21T18:21:27.450Z,21.93
2018-02-21T18:23:54.911Z,21.83
2018-02-21T18:26:22.380Z,24.30
2018-02-21T18:28:49.831Z,23.23
2018-02-21T18:31:17.291Z,23.07
2018-02-21T18:33:44.763Z,24.00
2018-02-21T18:36:12.254Z,23.63
2018-02-21T18:38:39.676Z,25.23
2018-02-21T18:41:07.142Z,24.63
2018-02-21T18:43:34.615Z,23.53
2018-02-21T18:46:02.047Z,25.60
2018-02-21T18:48:30.266Z,25.23
2018-02-21T18:50:57.758Z,25.90
2018-02-21T18:53:25.227Z,25.97
2018-02-21T18:55:52.703Z,26.63
2018-02-21T18:58:20.179Z,27.97
2018-02-21T19:00:47.617Z,26.60
2018-02-21T19:03:15.132Z,28.07
2018-02-21T19:05:42.607Z,27.23
2018-02-21T19:08:10.075Z,28.83
2018-02-21T19:10:37.594Z,28.67
2018-02-21T19:13:05.063Z,29.73
2018-02-21T19:15:32.508Z,29.43
2018-02-21T19:18:00.764Z,29.83
2018-02-21T19:20:28.210Z,29.40
2018-02-21T19:22:55.658Z,31.00
2018-02-21T19:25:23.120Z,28.50
2018-02-21T19:27:50.586Z,28.40
2018-02-21T19:30:18.063Z,30.07
2018-02-21T19:32:46.276Z,29.63
2018-02-21T19:35:13.758Z,29.67
2018-02-21T19:37:41.210Z,30.50
2018-02-21T19:40:08.671Z,29.10
2018-02-21T19:42:36.167Z,29.70
2018-02-21T19:45:03.606Z,29.90
2018-02-21T19:47:31.075Z,30.00
2018-02-21T19:49:58.523Z,28.90
2018-02-21T19:52:25.982Z,29.20
2018-02-21T19:54:53.435Z,29.70
2018-02-21T19:57:20.883Z,31.67
2018-02-21T19:59:48.380Z,29.63
2018-02-21T20:02:15.837Z,28.50
2018-02-21T20:04:44.054Z,30.80
2018-02-21T20:07:11.535Z,28.90
2018-02-21T20:09:38.982Z,28.60
2018-02-21T20:12:06.435Z,31.10
2018-02-21T20:14:33.884Z,31.70
2018-02-21T20:17:01.339Z,36.97
2018-02-21T20:19:28.792Z,36.47
2018-02-21T20:21:56.338Z,33.73
2018-02-21T20:24:23.807Z,33.57
2018-02-21T20:26:51.282Z,31.30
2018-02-21T20:29:19.532Z,31.30
2018-02-21T20:31:46.992Z,30.67
2018-02-21T20:34:14.426Z,32.53
2018-02-21T20:36:41.878Z,32.40
2018-02-21T20:39:10.098Z,32.07
2018-02-21T20:41:38.403Z,31.47
2018-02-21T20:44:06.598Z,31.83
2018-02-21T20:46:34.044Z,31.40
2018-02-21T20:49:01.506Z,30.07
2018-02-21T20:51:28.946Z,30.30
2018-02-21T20:53:56.393Z,31.47
2018-02-21T20:56:24.617Z,31.40
2018-02-21T20:58:52.104Z,30.93
2018-02-21T21:01:19.580Z,34.47
2018-02-21T21:03:47.832Z,44.20
2018-02-21T21:06:15.293Z,75.67
2018-02-21T21:08:42.737Z,38.63
2018-02-21T21:11:10.963Z,33.93
2018-02-21T21:13:39.203Z,36.17
2018-02-21T21:16:06.766Z,35.80
2018-02-21T21:18:34.215Z,40.60
2018-02-21T21:21:01.710Z,49.40
2018-02-21T21:23:29.175Z,47.83
2018-02-21T21:25:56.747Z,36.20
2018-02-21T21:28:24.209Z,34.40
2018-02-21T21:30:51.642Z,33.50
2018-02-21T21:33:19.112Z,34.50
2018-02-21T21:35:46.559Z,33.17
2018-02-21T21:38:14.018Z,34.57
2018-02-21T21:40:41.484Z,36.17
2018-02-21T21:43:08.960Z,33.83
2018-02-21T21:45:36.423Z,35.10
2018-02-21T21:48:03.908Z,34.20
2018-02-21T21:50:31.354Z,35.73
2018-02-21T21:52:58.796Z,35.17
2018-02-21T21:55:27.035Z,34.60
2018-02-21T21:57:54.482Z,36.13
2018-02-21T22:00:21.955Z,59.00
2018-02-21T22:02:49.422Z,45.60
2018-02-21T22:05:16.879Z,42.43
2018-02-21T22:07:44.346Z,48.73
2018-02-21T22:10:11.788Z,39.17
2018-02-21T22:12:39.314Z,33.43
2018-02-21T22:15:06.746Z,35.43
2018-02-21T22:17:34.242Z,33.83
2018-02-21T22:20:01.700Z,31.60
2018-02-21T22:22:29.155Z,34.50
2018-02-21T22:24:56.622Z,33.30
2018-02-21T22:27:24.835Z,35.60
2018-02-21T22:29:52.316Z,35.67
2018-02-21T22:32:19.869Z,32.73
2018-02-21T22:34:47.346Z,32.93
2018-02-21T22:37:14.823Z,34.23
2018-02-21T22:39:42.281Z,34.03
2018-02-21T22:42:09.779Z,35.10
2018-02-21T22:44:37.262Z,35.07
2018-02-21T22:47:04.715Z,32.03
2018-02-21T22:49:32.927Z,35.33
2018-02-21T22:52:00.394Z,35.83
2018-02-21T22:54:27.838Z,33.43
2018-02-21T22:56:55.313Z,32.50
2018-02-21T22:59:22.763Z,34.07
2018-02-21T23:01:50.233Z,31.97
2018-02-21T23:04:17.698Z,32.57
2018-02-21T23:06:45.145Z,33.47
2018-02-21T23:09:12.600Z,33.47
2018-02-21T23:11:40.044Z,32.67
2018-02-21T23:14:07.519Z,32.57
2018-02-21T23:16:34.987Z,32.90
2018-02-21T23:19:02.463Z,34.23
2018-02-21T23:21:29.902Z,32.33
2018-02-21T23:23:57.481Z,34.07
2018-02-21T23:26:25.694Z,33.83
2018-02-21T23:28:53.151Z,34.90
2018-02-21T23:31:21.397Z,35.03
2018-02-21T23:33:48.862Z,34.10
2018-02-21T23:36:16.295Z,32.43
2018-02-21T23:38:44.536Z,35.17
2018-02-21T23:41:11.994Z,35.20
2018-02-21T23:43:40.230Z,34.97
2018-02-21T23:46:07.686Z,34.87
2018-02-21T23:48:35.157Z,32.77
2018-02-21T23:51:02.598Z,35.57
2018-02-21T23:53:30.092Z,34.13
2018-02-21T23:55:57.550Z,35.20
2018-02-21T23:58:25.747Z,35.13
